Time;durP1;ratioP1;P1;durP2;ratioP2;P2;SDS_P1;SDS_P2;PMS_P1;PMS_P2;Temp;Humidity;BMP_temperature;BMP_pressure;BME280_temperature;BME280_humidity;BME280_pressure;Samples;Min_cycle;Max_cycle;Signal;HPM_P1;HPM_P2
2021/11/13 00:01:30;;;;;;;42.53;24.23;;;;;;;0.39;100.00;98814.56;5037378;28;20033;-59
2021/11/13 00:03:57;;;;;;;42.33;24.40;;;;;;;0.44;100.00;98815.53;5037971;28;20403;-60
2021/11/13 00:06:23;;;;;;;42.90;22.77;;;;;;;0.39;100.00;98815.44;5036502;28;20029;-61
2021/11/13 00:08:48;;;;;;;43.27;23.10;;;;;;;0.37;100.00;98806.13;5040745;28;20036;-59
2021/11/13 00:11:14;;;;;;;41.83;22.63;;;;;;;0.34;100.00;98804.38;5035710;28;20029;-60
2021/11/13 00:13:40;;;;;;;45.93;22.90;;;;;;;0.33;100.00;98809.41;5041441;28;20029;-60
2021/11/13 00:16:06;;;;;;;41.80;23.47;;;;;;;0.29;100.00;98808.47;5041322;28;20043;-61
2021/11/13 00:18:35;;;;;;;42.53;22.03;;;;;;;0.26;100.00;98797.44;5042646;28;20172;-62
2021/11/13 00:21:05;;;;;;;41.47;22.70;;;;;;;0.23;100.00;98805.78;5040556;28;20033;-60
2021/11/13 00:23:32;;;;;;;47.13;23.43;;;;;;;0.17;100.00;98805.63;5037321;28;20494;-61
2021/11/13 00:25:58;;;;;;;39.63;21.07;;;;;;;0.14;100.00;98797.16;5036651;28;20126;-60
2021/11/13 00:28:25;;;;;;;38.83;21.70;;;;;;;0.09;100.00;98794.50;5041911;28;20063;-62
2021/11/13 00:30:50;;;;;;;40.50;22.10;;;;;;;0.10;100.00;98810.50;5041249;28;20021;-61
2021/11/13 00:33:16;;;;;;;41.70;23.00;;;;;;;0.07;100.00;98806.25;5038934;28;20082;-61
2021/11/13 00:35:41;;;;;;;50.27;25.77;;;;;;;0.16;100.00;98798.91;5035544;28;20029;-60
2021/11/13 00:38:07;;;;;;;49.50;25.37;;;;;;;0.26;100.00;98805.00;5036682;28;20437;-61
2021/11/13 00:40:33;;;;;;;45.53;25.37;;;;;;;0.34;100.00;98801.84;5038523;28;20025;-61
2021/11/13 00:42:58;;;;;;;46.57;23.30;;;;;;;0.38;100.00;98790.19;5039375;28;20085;-60
2021/11/13 00:45:24;;;;;;;53.77;26.33;;;;;;;0.50;100.00;98793.00;5037494;28;20103;-61
2021/11/13 00:47:49;;;;;;;51.27;24.43;;;;;;;0.59;100.00;98794.88;5041573;28;20032;-61
2021/11/13 00:50:15;;;;;;;47.20;25.70;;;;;;;0.69;100.00;98797.63;5039183;28;20507;-59
2021/11/13 00:52:42;;;;;;;51.20;26.30;;;;;;;0.76;100.00;98786.88;5038055;28;20041;-61
2021/11/13 00:55:10;;;;;;;52.83;27.63;;;;;;;0.80;100.00;98792.84;5040751;28;20057;-60
2021/11/13 00:57:35;;;;;;;70.97;27.97;;;;;;;0.76;100.00;98786.03;5039992;28;20037;-61
2021/11/13 01:00:03;;;;;;;56.03;27.63;;;;;;;0.82;100.00;98781.09;5039478;28;20037;-61
2021/11/13 01:02:28;;;;;;;99.10;26.53;;;;;;;0.84;100.00;98790.41;5038367;28;20025;-61
2021/11/13 01:04:53;;;;;;;57.17;25.27;;;;;;;0.88;100.00;98797.25;5037288;28;20037;-60
2021/11/13 01:07:19;;;;;;;46.90;21.73;;;;;;;0.95;100.00;98800.72;5040365;28;20036;-61
2021/11/13 01:09:44;;;;;;;39.03;22.37;;;;;;;0.99;100.00;98802.50;5039290;28;20506;-61
2021/11/13 01:12:10;;;;;;;62.13;24.33;;;;;;;1.04;100.00;98800.06;5040750;28;20450;-60
2021/11/13 01:14:39;;;;;;;59.53;25.50;;;;;;;1.06;100.00;98800.97;5041425;28;20041;-60
2021/11/13 01:17:07;;;;;;;43.03;20.90;;;;;;;1.09;100.00;98796.84;5037036;28;20037;-60
2021/11/13 01:19:33;;;;;;;43.00;22.27;;;;;;;1.13;100.00;98795.22;5038771;28;20052;-59
2021/11/13 01:21:59;;;;;;;51.43;22.90;;;;;;;1.13;100.00;98801.13;5037752;28;20061;-60
2021/11/13 01:24:25;;;;;;;60.03;24.77;;;;;;;1.17;100.00;98799.50;5037809;28;20115;-61
2021/11/13 01:26:50;;;;;;;48.20;24.43;;;;;;;1.18;100.00;98797.03;5037998;28;20060;-59
2021/11/13 01:29:16;;;;;;;57.40;24.00;;;;;;;1.20;100.00;98794.53;5040367;28;20104;-61
2021/11/13 01:31:41;;;;;;;49.90;24.33;;;;;;;1.26;100.00;98795.50;5038153;28;20040;-61
2021/11/13 01:34:07;;;;;;;61.80;25.30;;;;;;;1.28;100.00;98791.31;5038504;28;20060;-61
2021/11/13 01:36:32;;;;;;;49.80;23.17;;;;;;;1.31;100.00;98800.66;5035544;28;20033;-62
2021/11/13 01:38:58;;;;;;;42.10;21.07;;;;;;;1.32;100.00;98799.81;5044998;28;20021;-61
2021/11/13 01:41:24;;;;;;;43.23;22.10;;;;;;;1.30;100.00;98793.91;5042212;28;20056;-61
2021/11/13 01:43:50;;;;;;;68.67;22.23;;;;;;;1.29;100.00;98793.03;5036721;28;20057;-61
2021/11/13 01:46:16;;;;;;;43.50;21.03;;;;;;;1.26;100.00;98793.00;5037027;28;20035;-62
2021/11/13 01:48:41;;;;;;;53.90;23.10;;;;;;;1.30;100.00;98787.16;5037910;28;20029;-61
2021/11/13 01:51:24;;;;;;;44.47;21.37;;;;;;;1.30;100.00;98781.25;5039548;28;20025;-61
2021/11/13 01:53:52;;;;;;;54.10;20.63;;;;;;;1.27;100.00;98786.25;5036637;28;20349;-62
2021/11/13 01:56:22;;;;;;;42.33;21.53;;;;;;;1.22;100.00;98782.78;5037604;28;20075;-61
2021/11/13 01:58:51;;;;;;;42.23;21.37;;;;;;;1.29;100.00;98782.94;5038118;28;20029;-61
2021/11/13 02:01:17;;;;;;;50.47;21.97;;;;;;;1.30;100.00;98777.06;5035467;28;20033;-61
2021/11/13 02:03:45;;;;;;;52.17;22.90;;;;;;;1.28;100.00;98777.84;5038296;28;20033;-61
2021/11/13 02:06:12;;;;;;;53.63;22.10;;;;;;;1.26;100.00;98793.00;5036468;28;20060;-61
2021/11/13 02:08:39;;;;;;;62.37;22.27;;;;;;;1.17;100.00;98780.16;5037787;28;20539;-59
2021/11/13 02:11:04;;;;;;;43.47;20.90;;;;;;;1.28;100.00;98777.84;5036049;28;20072;-60
2021/11/13 02:13:30;;;;;;;46.17;21.30;;;;;;;1.28;100.00;98776.19;5036728;28;20038;-60
2021/11/13 02:15:55;;;;;;;42.90;21.60;;;;;;;1.20;100.00;98770.13;5035271;28;20108;-60
2021/11/13 02:18:20;;;;;;;49.97;23.27;;;;;;;1.28;100.00;98778.69;5036653;28;20045;-61
2021/11/13 02:20:46;;;;;;;51.63;23.83;;;;;;;1.29;100.00;98772.84;5033544;28;20033;-62
2021/11/13 02:23:13;;;;;;;65.67;24.10;;;;;;;1.23;100.00;98776.94;5035894;28;20033;-61
2021/11/13 02:25:39;;;;;;;48.63;22.30;;;;;;;1.20;100.00;98775.19;5036903;28;20060;-61
2021/11/13 02:28:07;;;;;;;97.47;25.93;;;;;;;1.02;100.00;98784.06;5033266;28;20036;-60
2021/11/13 02:30:33;;;;;;;95.70;25.00;;;;;;;0.99;100.00;98779.78;5035038;28;20064;-59
2021/11/13 02:32:59;;;;;;;60.23;25.13;;;;;;;1.07;100.00;98777.41;5032565;28;20029;-60
2021/11/13 02:35:27;;;;;;;46.90;23.27;;;;;;;1.21;100.00;98773.50;5035721;28;20095;-61
2021/11/13 02:37:53;;;;;;;47.77;23.43;;;;;;;1.26;100.00;98779.50;5032348;28;20523;-61
2021/11/13 02:40:20;;;;;;;53.40;22.73;;;;;;;1.26;100.00;98771.94;5038298;28;20071;-61
2021/11/13 02:42:47;;;;;;;48.77;22.93;;;;;;;1.34;100.00;98783.88;5038445;28;20045;-61
2021/11/13 02:45:14;;;;;;;44.97;22.50;;;;;;;1.35;100.00;98782.22;5039860;28;20476;-59
2021/11/13 02:47:42;;;;;;;44.07;21.17;;;;;;;1.40;100.00;98787.38;5036640;28;20409;-60
2021/11/13 02:50:10;;;;;;;48.17;21.90;;;;;;;1.40;100.00;98774.72;5035177;28;20383;-61
2021/11/13 02:52:45;;;;;;;42.83;21.90;;;;;;;1.50;100.00;98772.41;5039430;28;20131;-60
2021/11/13 02:55:11;;;;;;;38.67;20.95;;;;;;;1.50;100.00;98774.91;5036428;28;20590;-60
2021/11/13 02:57:41;;;;;;;42.37;21.73;;;;;;;1.46;100.00;98765.59;5040080;28;20044;-61
2021/11/13 03:00:09;;;;;;;34.33;20.17;;;;;;;1.51;100.00;98768.19;5038727;28;20037;-61
2021/11/13 03:02:37;;;;;;;42.40;20.03;;;;;;;1.53;100.00;98769.09;5037095;28;20032;-61
2021/11/13 03:05:03;;;;;;;42.57;22.03;;;;;;;1.65;100.00;98772.69;5037870;28;20068;-61
2021/11/13 03:07:28;;;;;;;43.47;20.73;;;;;;;1.69;100.00;98774.47;5039657;28;20455;-60
2021/11/13 03:09:54;;;;;;;38.30;21.17;;;;;;;1.75;100.00;98779.59;5036028;28;20115;-61
2021/11/13 03:12:19;;;;;;;37.60;19.13;;;;;;;1.70;100.00;98772.75;5036470;28;20412;-60
2021/11/13 03:14:45;;;;;;;33.67;19.40;;;;;;;1.67;100.00;98767.66;5037946;28;20029;-61
2021/11/13 03:17:12;;;;;;;35.77;20.60;;;;;;;1.68;100.00;98772.75;5034425;28;20483;-60
2021/11/13 03:19:38;;;;;;;42.83;20.53;;;;;;;1.66;100.00;98765.94;5037309;28;20026;-60
2021/11/13 03:22:04;;;;;;;38.93;20.63;;;;;;;1.62;100.00;98760.00;5031357;28;20057;-61
2021/11/13 03:24:29;;;;;;;37.17;20.07;;;;;;;1.65;100.00;98761.75;5036139;28;20486;-61
2021/11/13 03:26:58;;;;;;;37.77;21.10;;;;;;;1.75;100.00;98766.13;5038208;28;20041;-58
2021/11/13 03:29:29;;;;;;;36.53;19.73;;;;;;;1.79;100.00;98765.34;5035113;28;20030;-61
2021/11/13 03:31:56;;;;;;;37.77;19.70;;;;;;;1.80;100.00;98765.38;5035275;28;20108;-59
2021/11/13 03:34:22;;;;;;;40.73;20.37;;;;;;;1.85;100.00;98773.03;5032615;28;20091;-59
2021/11/13 03:36:48;;;;;;;42.40;20.30;;;;;;;1.88;100.00;98768.03;5033707;28;20468;-60
2021/11/13 03:39:13;;;;;;;40.67;21.93;;;;;;;1.90;100.00;98760.50;5036892;28;20040;-61
2021/11/13 03:41:39;;;;;;;48.73;23.20;;;;;;;1.92;100.00;98759.69;5035079;28;20124;-61
2021/11/13 03:44:04;;;;;;;38.73;19.07;;;;;;;1.98;100.00;98769.06;5041338;28;20132;-61
2021/11/13 03:46:30;;;;;;;39.53;21.43;;;;;;;1.96;100.00;98769.00;5039841;28;20029;-61
2021/11/13 03:48:56;;;;;;;42.53;21.90;;;;;;;1.98;100.00;98764.00;5040945;28;20429;-60
2021/11/13 03:51:21;;;;;;;42.20;21.13;;;;;;;1.99;100.00;98774.16;5041366;28;20025;-61
2021/11/13 03:53:47;;;;;;;41.63;20.63;;;;;;;1.95;100.00;98766.47;5044942;28;20428;-62
2021/11/13 03:56:13;;;;;;;41.57;21.87;;;;;;;1.95;100.00;98767.34;5042956;28;20029;-61
2021/11/13 03:58:39;;;;;;;46.90;22.23;;;;;;;1.95;100.00;98774.91;5045652;28;20116;-61
2021/11/13 04:01:05;;;;;;;45.70;21.40;;;;;;;2.02;100.00;98774.19;5037255;28;20036;-61
2021/11/13 04:03:30;;;;;;;48.87;22.97;;;;;;;2.06;100.00;98772.56;5047109;28;20025;-61
2021/11/13 04:05:55;;;;;;;61.63;25.87;;;;;;;2.00;100.00;98765.72;5041084;28;20020;-60
2021/11/13 04:08:21;;;;;;;56.83;25.10;;;;;;;1.96;100.00;98766.50;5039870;28;20542;-61
2021/11/13 04:10:47;;;;;;;47.97;22.60;;;;;;;2.04;100.00;98774.19;5039605;28;20064;-62
2021/11/13 04:13:12;;;;;;;49.93;23.30;;;;;;;2.07;100.00;98769.22;5040976;28;20037;-61
2021/11/13 04:15:38;;;;;;;53.77;23.37;;;;;;;2.04;100.00;98762.41;5041183;28;20101;-61
2021/11/13 04:18:04;;;;;;;56.03;24.90;;;;;;;2.08;100.00;98761.63;5041021;28;20120;-61
2021/11/13 04:20:29;;;;;;;56.53;24.90;;;;;;;2.07;100.00;98770.06;5038220;28;20039;-60
2021/11/13 04:22:55;;;;;;;52.00;22.97;;;;;;;2.07;100.00;98766.69;5039485;28;20029;-61
2021/11/13 04:25:21;;;;;;;50.10;24.03;;;;;;;2.03;100.00;98767.47;5042956;28;20156;-61
2021/11/13 04:27:48;;;;;;;47.90;23.70;;;;;;;2.14;100.00;98768.47;5044094;28;20029;-61
2021/11/13 04:30:14;;;;;;;55.63;23.87;;;;;;;2.13;100.00;98759.19;5039082;28;20086;-61
2021/11/13 04:32:45;;;;;;;51.20;23.43;;;;;;;2.17;100.00;98763.47;5041480;28;20051;-61
2021/11/13 04:35:17;;;;;;;53.07;24.13;;;;;;;2.16;100.00;98766.84;5039949;28;20037;-59
2021/11/13 04:38:02;;;;;;;51.53;25.37;;;;;;;2.17;100.00;98768.53;5041270;28;20037;-61
2021/11/13 04:40:33;;;;;;;51.10;25.40;;;;;;;2.20;100.00;98761.84;5041324;28;20087;-60
2021/11/13 04:42:59;;;;;;;52.13;24.47;;;;;;;2.26;100.00;98761.09;5037415;28;20053;-60
2021/11/13 04:45:24;;;;;;;60.07;27.93;;;;;;;2.24;100.00;98758.56;5037825;28;20036;-61
2021/11/13 04:47:51;;;;;;;57.73;26.33;;;;;;;2.28;100.00;98761.97;5039264;28;20032;-61
2021/11/13 04:50:19;;;;;;;62.53;27.73;;;;;;;2.34;100.00;98758.66;5040599;28;20025;-61
2021/11/13 04:52:46;;;;;;;60.23;27.13;;;;;;;2.36;100.00;98754.50;5038457;28;20037;-59
2021/11/13 04:55:13;;;;;;;65.13;27.97;;;;;;;2.37;100.00;98758.75;5041114;28;20036;-61
2021/11/13 04:57:39;;;;;;;66.77;28.93;;;;;;;2.42;100.00;98752.91;5041046;28;20029;-59
2021/11/13 05:00:08;;;;;;;67.70;28.27;;;;;;;2.36;100.00;98754.50;5039755;28;20361;-60
2021/11/13 05:02:34;;;;;;;103.60;47.83;;;;;;;2.33;100.00;98757.84;5036634;28;20065;-61
2021/11/13 05:04:59;;;;;;;84.77;38.20;;;;;;;2.33;100.00;98757.84;5034762;28;20167;-60
2021/11/13 05:07:25;;;;;;;100.80;51.97;;;;;;;2.35;100.00;98757.84;5037689;28;20111;-61
2021/11/13 05:09:51;;;;;;;106.20;48.40;;;;;;;2.41;100.00;98757.94;5037713;28;20431;-60
2021/11/13 05:12:18;;;;;;;73.80;32.17;;;;;;;2.49;100.00;98766.50;5048645;28;20037;-61
2021/11/13 05:14:43;;;;;;;71.13;29.97;;;;;;;2.48;100.00;98757.22;5053862;28;20089;-60
2021/11/13 05:17:09;;;;;;;67.60;28.73;;;;;;;2.57;100.00;98752.28;5047547;28;20112;-61
2021/11/13 05:19:34;;;;;;;61.17;25.73;;;;;;;2.53;100.00;98755.59;5036411;28;20037;-58
2021/11/13 05:21:59;;;;;;;59.80;25.70;;;;;;;2.59;100.00;98753.19;5036132;28;20041;-58
2021/11/13 05:24:25;;;;;;;65.20;29.53;;;;;;;2.62;100.00;98755.75;5039282;28;20386;-60
2021/11/13 05:26:50;;;;;;;66.57;28.67;;;;;;;2.66;100.00;98754.94;5040224;28;20033;-60
2021/11/13 05:29:16;;;;;;;61.77;27.93;;;;;;;2.69;100.00;98760.06;5039562;28;20104;-60
2021/11/13 05:31:41;;;;;;;78.20;31.77;;;;;;;2.64;100.00;98759.97;5036536;28;20443;-60
2021/11/13 05:34:07;;;;;;;73.77;29.63;;;;;;;2.51;100.00;98764.84;5038493;28;20082;-60
2021/11/13 05:36:32;;;;;;;69.67;26.90;;;;;;;2.48;100.00;98758.06;5041932;28;20395;-59
2021/11/13 05:38:57;;;;;;;65.93;26.43;;;;;;;2.53;100.00;98770.78;5039583;28;20021;-60
2021/11/13 05:41:23;;;;;;;66.67;27.90;;;;;;;2.58;100.00;98762.44;5040495;28;20033;-60
2021/11/13 05:43:48;;;;;;;62.50;26.20;;;;;;;2.61;100.00;98759.09;5040628;28;20049;-59
2021/11/13 05:46:15;;;;;;;57.90;25.47;;;;;;;2.63;100.00;98758.28;5040298;28;20505;-60
2021/11/13 05:48:41;;;;;;;56.50;25.53;;;;;;;2.64;100.00;98759.13;5038933;28;20467;-60
2021/11/13 05:51:07;;;;;;;61.83;27.23;;;;;;;2.64;100.00;98762.50;5043517;28;20032;-61
2021/11/13 05:53:32;;;;;;;62.40;28.50;;;;;;;2.65;100.00;98763.38;5039655;28;20090;-60
2021/11/13 05:55:57;;;;;;;70.43;28.50;;;;;;;2.62;100.00;98760.81;5039557;28;20075;-60
2021/11/13 05:58:23;;;;;;;70.93;29.50;;;;;;;2.61;100.00;98772.59;5039046;28;20032;-60
2021/11/13 06:00:48;;;;;;;67.87;28.73;;;;;;;2.55;100.00;98785.16;5043846;28;20459;-59
2021/11/13 06:03:14;;;;;;;70.07;28.70;;;;;;;2.52;100.00;98780.06;5038209;28;20026;-59
2021/11/13 06:05:40;;;;;;;70.93;29.27;;;;;;;2.50;100.00;98789.31;5040099;28;20028;-59
2021/11/13 06:08:06;;;;;;;63.50;28.47;;;;;;;2.57;100.00;98793.63;5039688;28;20029;-60
2021/11/13 06:10:31;;;;;;;61.97;27.40;;;;;;;2.59;100.00;98797.03;5042018;28;20021;-58
2021/11/13 06:12:57;;;;;;;67.67;29.03;;;;;;;2.58;100.00;98797.00;5041205;28;20429;-58
2021/11/13 06:15:22;;;;;;;64.43;28.27;;;;;;;2.51;100.00;98795.19;5038115;28;20029;-60
2021/11/13 06:17:48;;;;;;;67.10;28.23;;;;;;;2.54;100.00;98790.22;5041703;28;20033;-59
2021/11/13 06:20:15;;;;;;;79.43;28.13;;;;;;;2.51;100.00;98790.13;5042042;28;20026;-60
2021/11/13 06:22:41;;;;;;;64.27;28.27;;;;;;;2.64;100.00;98794.56;5055016;28;20040;-60
2021/11/13 06:25:08;;;;;;;64.07;26.97;;;;;;;2.66;100.00;98795.44;5042568;28;20163;-60
2021/11/13 06:27:34;;;;;;;65.83;25.63;;;;;;;2.67;100.00;98797.97;5045969;28;20033;-60
2021/11/13 06:30:00;;;;;;;74.03;27.93;;;;;;;2.70;100.00;98794.66;5037938;28;20032;-60
2021/11/13 06:32:25;;;;;;;65.53;25.63;;;;;;;2.67;100.00;98795.44;5035052;28;20036;-59
2021/11/13 06:34:51;;;;;;;66.17;28.10;;;;;;;2.79;100.00;98809.13;5036824;28;20127;-60
2021/11/13 06:37:16;;;;;;;59.27;27.50;;;;;;;2.90;100.00;98797.47;5036476;28;20036;-61
2021/11/13 06:39:42;;;;;;;67.20;29.13;;;;;;;2.99;100.00;98795.06;5036336;28;20388;-61
2021/11/13 06:42:07;;;;;;;64.93;28.33;;;;;;;3.06;100.00;98801.91;5035010;28;20047;-58
2021/11/13 06:44:33;;;;;;;60.33;25.60;;;;;;;3.08;100.00;98813.78;5036742;28;20056;-60
2021/11/13 06:46:58;;;;;;;65.07;26.30;;;;;;;3.13;100.00;98813.84;5041070;28;20017;-61
2021/11/13 06:49:24;;;;;;;61.97;27.57;;;;;;;3.23;100.00;98818.19;5039696;28;20021;-58
2021/11/13 06:51:50;;;;;;;62.13;25.03;;;;;;;3.23;100.00;98818.19;5037402;28;20459;-60
2021/11/13 06:54:16;;;;;;;62.97;24.73;;;;;;;3.32;100.00;98822.50;5036322;28;20041;-60
2021/11/13 06:56:42;;;;;;;58.27;25.47;;;;;;;3.32;100.00;98825.03;5032748;28;20029;-61
2021/11/13 06:59:08;;;;;;;65.50;26.37;;;;;;;3.28;100.00;98828.38;5036963;28;20037;-61
2021/11/13 07:01:33;;;;;;;49.60;25.17;;;;;;;3.34;100.00;98829.31;5033572;28;20028;-61
2021/11/13 07:03:59;;;;;;;59.10;27.83;;;;;;;3.31;100.00;98826.72;5035855;28;20034;-59
2021/11/13 07:06:24;;;;;;;46.70;24.07;;;;;;;3.30;100.00;98830.09;5035461;28;20123;-60
2021/11/13 07:08:50;;;;;;;47.30;22.43;;;;;;;3.38;100.00;98833.59;5039267;28;20054;-60
2021/11/13 07:11:15;;;;;;;52.30;24.80;;;;;;;3.50;100.00;98838.81;5034169;28;20471;-60
2021/11/13 07:13:41;;;;;;;50.17;25.33;;;;;;;3.48;100.00;98837.09;5036727;28;20037;-61
2021/11/13 07:16:06;;;;;;;47.97;23.33;;;;;;;3.47;100.00;98838.78;5037116;28;20025;-60
2021/11/13 07:18:32;;;;;;;50.63;23.10;;;;;;;3.53;100.00;98836.28;5038855;28;20048;-61
2021/11/13 07:21:00;;;;;;;45.10;21.90;;;;;;;3.59;100.00;98840.59;5041265;28;20363;-61
2021/11/13 07:23:26;;;;;;;40.87;21.80;;;;;;;3.50;100.00;98843.88;5034968;28;20033;-60
2021/11/13 07:25:51;;;;;;;44.47;22.37;;;;;;;3.65;100.00;98851.66;5038046;28;20053;-61
2021/11/13 07:28:20;;;;;;;39.97;20.67;;;;;;;3.64;100.00;98844.91;5036184;28;20044;-60
2021/11/13 07:30:48;;;;;;;48.20;23.97;;;;;;;3.76;100.00;98838.25;5040239;28;20033;-60
2021/11/13 07:33:14;;;;;;;44.97;23.13;;;;;;;3.84;100.00;98842.59;5035684;28;20480;-61
2021/11/13 07:35:42;;;;;;;44.27;22.07;;;;;;;3.83;100.00;98843.41;5037222;28;20031;-60
2021/11/13 07:38:09;;;;;;;47.07;22.63;;;;;;;3.92;100.00;98848.59;5038522;28;20045;-60
2021/11/13 07:40:34;;;;;;;43.13;22.97;;;;;;;3.95;100.00;98850.28;5040461;28;20037;-59
2021/11/13 07:43:00;;;;;;;44.33;21.40;;;;;;;3.98;100.00;98848.66;5035551;28;20400;-62
2021/11/13 07:45:30;;;;;;;42.30;21.40;;;;;;;4.12;100.00;98848.78;5038376;28;20480;-57
2021/11/13 07:47:56;;;;;;;43.27;22.93;;;;;;;4.14;100.00;98847.13;5038461;28;20033;-61
2021/11/13 07:50:22;;;;;;;45.57;21.57;;;;;;;4.24;100.00;98850.59;5038963;28;20087;-60
2021/11/13 07:52:48;;;;;;;42.70;22.60;;;;;;;4.17;100.00;98848.81;5035513;28;20033;-61
2021/11/13 07:55:16;;;;;;;44.37;22.93;;;;;;;4.29;100.00;98846.41;5039810;28;20056;-60
2021/11/13 07:57:42;;;;;;;38.53;21.33;;;;;;;4.38;100.00;98846.50;5038874;28;20099;-61
2021/11/13 08:00:10;;;;;;;39.33;20.90;;;;;;;4.39;100.00;98856.66;5038893;28;20580;-60
2021/11/13 08:02:36;;;;;;;45.97;23.37;;;;;;;4.36;100.00;98854.09;5036605;28;20390;-60
2021/11/13 08:05:02;;;;;;;38.87;20.40;;;;;;;4.43;100.00;98865.16;5031868;28;20029;-57
2021/11/13 08:07:27;;;;;;;37.10;20.57;;;;;;;4.54;100.00;98864.41;5034034;28;20532;-58
2021/11/13 08:09:53;;;;;;;45.30;24.60;;;;;;;4.54;100.00;98861.03;5034097;28;20033;-56
2021/11/13 08:12:19;;;;;;;41.87;21.77;;;;;;;4.57;100.00;98856.84;5039704;28;20029;-57
2021/11/13 08:14:45;;;;;;;41.23;22.63;;;;;;;4.68;100.00;98858.59;5035150;28;20128;-53
2021/11/13 08:17:10;;;;;;;42.00;20.83;;;;;;;4.49;100.00;98857.59;5035878;28;20140;-55
2021/11/13 08:19:36;;;;;;;41.73;22.93;;;;;;;4.56;100.00;98855.13;5035128;28;20439;-52
2021/11/13 08:22:01;;;;;;;42.27;21.47;;;;;;;4.65;100.00;98859.44;5036317;28;20409;-56
2021/11/13 08:24:27;;;;;;;45.50;23.27;;;;;;;4.52;100.00;98861.03;5035165;28;20040;-55
2021/11/13 08:26:52;;;;;;;41.20;21.17;;;;;;;4.53;100.00;98862.72;5037574;28;20674;-58
2021/11/13 08:29:18;;;;;;;41.47;22.40;;;;;;;4.61;100.00;98862.78;5038650;28;20079;-56
2021/11/13 08:31:43;;;;;;;41.10;20.57;;;;;;;4.64;100.00;98865.34;5036695;28;20043;-59
2021/11/13 08:34:09;;;;;;;40.87;22.43;;;;;;;4.72;100.00;98852.69;5037445;28;20450;-59
2021/11/13 08:36:34;;;;;;;46.47;24.27;;;;;;;4.78;100.00;98851.06;5042583;28;20061;-60
2021/11/13 08:39:03;;;;;;;43.40;23.93;;;;;;;4.87;100.00;98850.28;5037631;28;20041;-60
2021/11/13 08:41:29;;;;;;;41.17;23.13;;;;;;;4.90;100.00;98847.75;5039307;28;20060;-59
2021/11/13 08:43:54;;;;;;;45.13;24.47;;;;;;;4.97;100.00;98854.56;5039403;28;20048;-61
2021/11/13 08:46:19;;;;;;;42.53;23.80;;;;;;;5.12;100.00;98847.06;5040870;28;20053;-58
2021/11/13 08:48:45;;;;;;;42.17;23.57;;;;;;;5.23;100.00;98845.44;5038413;28;20403;-55
2021/11/13 08:51:11;;;;;;;43.80;22.50;;;;;;;5.22;100.00;98851.34;5041931;28;20033;-57
2021/11/13 08:53:37;;;;;;;41.37;23.03;;;;;;;5.31;100.00;98848.00;5039868;28;20032;-57
2021/11/13 08:56:02;;;;;;;46.57;25.30;;;;;;;5.32;100.00;98850.56;5040984;28;20037;-58
2021/11/13 08:58:28;;;;;;;42.73;24.23;;;;;;;5.35;100.00;98845.50;5040619;28;20025;-56
2021/11/13 09:01:06;;;;;;;47.17;23.83;;;;;;;5.49;100.00;98858.28;5043978;28;20021;-55
2021/11/13 09:03:38;;;;;;;44.17;23.40;;;;;;;5.48;100.00;98852.34;5041366;28;20033;-59
2021/11/13 09:06:10;;;;;;;44.97;23.37;;;;;;;5.53;100.00;98858.28;5036322;28;20640;-57
2021/11/13 09:08:39;;;;;;;45.73;24.50;;;;;;;5.54;100.00;98854.06;5039681;28;20086;-58
2021/11/13 09:11:07;;;;;;;40.93;23.33;;;;;;;5.36;100.00;98864.13;5041426;28;20168;-58
2021/11/13 09:13:33;;;;;;;42.07;21.23;;;;;;;5.26;100.00;98867.50;5043753;28;20167;-58
2021/11/13 09:16:01;;;;;;;49.20;25.10;;;;;;;5.21;100.00;98862.38;5042130;28;20056;-58
2021/11/13 09:18:27;;;;;;;44.27;21.33;;;;;;;5.03;100.00;98862.25;5041847;28;20025;-56
2021/11/13 09:20:53;;;;;;;45.50;23.17;;;;;;;5.19;100.00;98850.47;5040452;28;20072;-58
2021/11/13 09:23:18;;;;;;;38.43;21.60;;;;;;;5.03;100.00;98859.72;5045351;28;20360;-56
2021/11/13 09:25:46;;;;;;;38.77;22.77;;;;;;;5.00;100.00;98858.00;5040515;28;20052;-53
2021/11/13 09:28:12;;;;;;;39.67;22.27;;;;;;;5.18;100.00;98859.78;5042024;28;20037;-54
2021/11/13 09:30:39;;;;;;;37.67;20.73;;;;;;;5.21;100.00;98857.28;5042992;28;20021;-56
2021/11/13 09:33:06;;;;;;;37.70;22.50;;;;;;;5.40;100.00;98855.69;5042495;28;20033;-54
2021/11/13 09:35:31;;;;;;;37.67;20.27;;;;;;;5.46;100.00;98854.03;5039536;28;20030;-53
2021/11/13 09:37:58;;;;;;;37.57;20.47;;;;;;;5.62;100.00;98847.31;5036894;28;20033;-58
2021/11/13 09:40:25;;;;;;;30.07;18.80;;;;;;;5.70;100.00;98843.09;5034913;28;20037;-58
2021/11/13 09:42:54;;;;;;;30.97;18.07;;;;;;;5.79;100.00;98843.16;5036619;28;20076;-56
2021/11/13 09:45:20;;;;;;;31.20;17.47;;;;;;;5.83;100.00;98844.84;5042948;28;20037;-59
2021/11/13 09:47:49;;;;;;;30.20;17.30;;;;;;;5.88;100.00;98842.34;5040518;28;20067;-59
2021/11/13 09:50:16;;;;;;;28.10;18.00;;;;;;;5.86;100.00;98842.34;5042166;28;20029;-55
2021/11/13 09:52:43;;;;;;;27.67;16.10;;;;;;;5.87;100.00;98844.03;5038925;28;20025;-56
2021/11/13 09:55:10;;;;;;;25.23;16.00;;;;;;;5.90;100.00;98843.19;5040781;28;20127;-55
2021/11/13 09:57:37;;;;;;;26.57;13.03;;;;;;;5.88;100.00;98838.13;5033116;28;20029;-57
2021/11/13 10:00:13;;;;;;;25.43;14.60;;;;;;;5.83;100.00;98834.69;5039325;28;21100;-55
2021/11/13 10:02:39;;;;;;;23.77;13.90;;;;;;;5.81;100.00;98841.44;5039107;28;20024;-57
2021/11/13 10:05:05;;;;;;;25.47;14.43;;;;;;;5.66;100.00;98838.00;5037189;28;20467;-57
2021/11/13 10:07:33;;;;;;;21.43;13.23;;;;;;;5.61;100.00;98835.44;5039863;28;20242;-58
2021/11/13 10:09:59;;;;;;;20.73;13.43;;;;;;;5.69;100.00;98830.38;5034686;28;20025;-55
2021/11/13 10:12:39;;;;;;;24.10;13.60;;;;;;;5.64;100.00;98827.00;5034792;28;20037;-57
2021/11/13 10:15:31;;;;;;;28.10;15.17;;;;;;;5.60;100.00;98835.44;5034252;28;20390;-56
2021/11/13 10:18:18;;;;;;;24.80;14.97;;;;;;;5.68;100.00;98831.25;5034621;28;20596;-58
2021/11/13 10:20:47;;;;;;;25.80;12.93;;;;;;;5.69;100.00;98831.22;5035214;28;20387;-55
2021/11/13 10:23:33;;;;;;;26.53;14.67;;;;;;;5.69;100.00;98823.59;5035559;28;20079;-57
2021/11/13 10:26:10;;;;;;;26.57;13.43;;;;;;;5.87;100.00;98823.69;5035924;28;20080;-56
2021/11/13 10:28:53;;;;;;;21.77;12.63;;;;;;;5.87;100.00;98820.28;5036666;28;20033;-56
2021/11/13 10:31:26;;;;;;;23.57;13.17;;;;;;;5.78;100.00;98817.69;5036216;28;20022;-54
2021/11/13 10:33:55;;;;;;;24.40;14.17;;;;;;;5.87;100.00;98817.75;5036027;28;20036;-56
2021/11/13 10:36:46;;;;;;;25.27;14.80;;;;;;;5.92;100.00;98816.06;5035557;28;20038;-55
2021/11/13 10:39:13;;;;;;;21.93;13.50;;;;;;;5.94;100.00;98819.50;5033517;28;20050;-52
2021/11/13 10:41:47;;;;;;;25.20;13.10;;;;;;;6.02;100.00;98815.25;5037208;28;20028;-56
2021/11/13 10:44:14;;;;;;;24.50;14.63;;;;;;;5.95;100.00;98822.00;5034785;28;20061;-57
2021/11/13 10:46:45;;;;;;;24.30;14.43;;;;;;;5.93;100.00;98817.78;5034404;28;20126;-56
2021/11/13 10:49:11;;;;;;;22.63;14.00;;;;;;;5.76;100.00;98816.84;5032686;28;20039;-54
2021/11/13 10:51:38;;;;;;;21.93;13.57;;;;;;;5.68;100.00;98809.22;5032105;28;20029;-56
2021/11/13 10:54:12;;;;;;;23.07;14.17;;;;;;;5.70;100.00;98807.50;5033511;28;20376;-53
2021/11/13 10:56:50;;;;;;;23.20;12.80;;;;;;;5.61;100.00;98814.25;5038116;28;20021;-52
2021/11/13 10:59:16;;;;;;;21.03;12.23;;;;;;;5.59;100.00;98818.50;5033627;28;20103;-54
2021/11/13 11:01:48;;;;;;;22.27;13.20;;;;;;;5.68;100.00;98810.91;5033431;28;20032;-54
2021/11/13 11:04:16;;;;;;;24.07;13.43;;;;;;;5.61;100.00;98814.25;5034028;28;20503;-56
2021/11/13 11:06:49;;;;;;;23.77;13.63;;;;;;;5.74;100.00;98821.06;5035524;28;20558;-56
2021/11/13 11:09:20;;;;;;;25.93;14.13;;;;;;;5.65;100.00;98818.50;5032410;28;20025;-60
2021/11/13 11:11:47;;;;;;;21.03;13.30;;;;;;;5.61;100.00;98812.53;5034091;28;20082;-60
2021/11/13 11:14:17;;;;;;;20.97;12.23;;;;;;;5.61;100.00;98814.25;5035171;28;20033;-59
2021/11/13 11:16:45;;;;;;;21.97;11.47;;;;;;;5.47;100.00;98815.03;5037611;28;20033;-56